Palava, Texas
Current Conditions -  °F | °C
As of 12:15 PM on Thursday 18 Dec 2014 (Local Time) from KSWW Reporting Station
Clear Clear  
Wind Chill: 60°   Ceiling: Unl
Heat Index: 60°   Visibility: 10mi
Dew Point: 35°   Wind: 5mph
Humidity: 39%   Direction: 300°WNW
Pressure: 30.13"   Gusts: NA
Location:  32.5104°N, 100.305°W
Report Text: KSWW 181815Z AUTO 30004KT 10SM CLR 16/02 A3013 RMK AO2 T01570016
Loading
Personal Weather Stations






























Interactive Weather Map New forecast layout! Learn more

10-Day Weather Forecast

Advertisements
Track Severe Weather on mobile